Time;durP1;ratioP1;P1;durP2;ratioP2;P2;SDS_P1;SDS_P2;PMS_P1;PMS_P2;Temp;Humidity;BMP_temperature;BMP_pressure;BME280_temperature;BME280_humidity;BME280_pressure;Samples;Min_cycle;Max_cycle;Signal;HPM_P1;HPM_P2
2022/04/09 00:00:56;;;;;;;12.70;6.90;;;;;;;;;;5116202;28;20620;-59
2022/04/09 00:03:23;;;;;;;12.10;6.60;;;;;;;;;;5116235;28;20604;-62
2022/04/09 00:05:50;;;;;;;12.67;6.77;;;;;;;;;;5116119;28;20225;-61
2022/04/09 00:08:18;;;;;;;11.80;4.87;;;;;;;;;;5116425;28;20206;-60
2022/04/09 00:10:46;;;;;;;11.60;5.80;;;;;;;;;;5116204;28;20693;-61
2022/04/09 00:13:13;;;;;;;7.47;5.07;;;;;;;;;;5115851;28;20249;-62
2022/04/09 00:15:41;;;;;;;7.87;4.90;;;;;;;;;;5115811;27;20190;-62
2022/04/09 00:18:08;;;;;;;7.80;5.23;;;;;;;;;;5115967;28;20206;-62
2022/04/09 00:20:35;;;;;;;8.93;5.30;;;;;;;;;;5115875;28;20254;-58
2022/04/09 00:23:04;;;;;;;5.13;3.67;;;;;;;;;;5115809;28;20205;-64
2022/04/09 00:25:32;;;;;;;5.73;3.83;;;;;;;;;;5116174;28;20975;-62
2022/04/09 00:27:59;;;;;;;7.80;4.23;;;;;;;;;;5116066;28;20202;-59
2022/04/09 00:30:26;;;;;;;6.57;5.00;;;;;;;;;;5114719;28;20233;-62
2022/04/09 00:32:54;;;;;;;11.80;6.57;;;;;;;;;;5115344;28;20296;-62
2022/04/09 00:35:21;;;;;;;11.10;6.40;;;;;;;;;;5115681;28;20210;-61
2022/04/09 00:37:48;;;;;;;10.37;6.30;;;;;;;;;;5114757;28;20647;-61
2022/04/09 00:40:19;;;;;;;12.43;6.83;;;;;;;;;;5115614;28;20624;-60
2022/04/09 00:42:46;;;;;;;10.47;6.13;;;;;;;;;;5115474;28;20182;-61
2022/04/09 00:45:14;;;;;;;7.50;5.73;;;;;;;;;;5114839;28;20202;-61
2022/04/09 00:47:42;;;;;;;9.20;5.57;;;;;;;;;;5114916;28;20324;-61
2022/04/09 00:50:10;;;;;;;9.77;5.10;;;;;;;;;;5115353;28;20288;-61
2022/04/09 00:52:45;;;;;;;11.40;5.50;;;;;;;;;;5114490;28;20305;-61
2022/04/09 00:55:13;;;;;;;12.17;6.47;;;;;;;;;;5115429;28;20693;-61
2022/04/09 00:57:42;;;;;;;9.63;6.27;;;;;;;;;;5113783;28;20593;-61
2022/04/09 01:00:09;;;;;;;6.47;4.60;;;;;;;;;;5114492;28;20202;-60
2022/04/09 01:02:40;;;;;;;6.93;5.03;;;;;;;;;;5115130;28;20289;-61
2022/04/09 01:05:08;;;;;;;8.27;6.27;;;;;;;;;;5115523;28;20254;-61
2022/04/09 01:07:35;;;;;;;9.60;6.10;;;;;;;;;;5114992;28;20223;-62
2022/04/09 01:10:04;;;;;;;10.67;5.80;;;;;;;;;;5114484;28;20240;-63
2022/04/09 01:12:34;;;;;;;10.20;6.27;;;;;;;;;;5114143;28;20693;-62
2022/04/09 01:15:06;;;;;;;13.70;7.27;;;;;;;;;;5114865;28;20283;-62
2022/04/09 01:17:37;;;;;;;8.57;5.87;;;;;;;;;;5113959;28;20292;-62
2022/04/09 01:20:21;;;;;;;9.83;6.63;;;;;;;;;;5113848;28;20198;-61
2022/04/09 01:22:51;;;;;;;10.83;6.03;;;;;;;;;;5113457;28;20582;-60
2022/04/09 01:25:20;;;;;;;13.37;6.13;;;;;;;;;;5113882;28;20610;-61
2022/04/09 01:27:50;;;;;;;7.80;6.30;;;;;;;;;;5113860;28;20216;-61
2022/04/09 01:30:18;;;;;;;10.87;6.60;;;;;;;;;;5114095;28;20316;-61
2022/04/09 01:32:46;;;;;;;11.03;7.40;;;;;;;;;;5096649;28;20202;-61
2022/04/09 01:35:13;;;;;;;11.67;7.87;;;;;;;;;;5093173;28;20268;-60
2022/04/09 01:37:41;;;;;;;13.17;8.10;;;;;;;;;;5092871;28;20348;-61
2022/04/09 01:40:09;;;;;;;12.03;8.67;;;;;;;;;;5093757;28;20199;-61
2022/04/09 01:42:37;;;;;;;10.90;8.00;;;;;;;;;;5093431;28;20205;-61
2022/04/09 01:45:07;;;;;;;13.60;8.60;;;;;;;;;;5092314;28;20404;-60
2022/04/09 01:47:35;;;;;;;15.37;9.17;;;;;;;;;;5093505;28;20226;-61
2022/04/09 01:50:03;;;;;;;13.93;8.50;;;;;;;;;;5093518;28;20268;-60
2022/04/09 01:52:31;;;;;;;13.20;8.57;;;;;;;;;;5094530;28;20286;-61
2022/04/09 01:54:58;;;;;;;12.70;8.30;;;;;;;;;;5094260;28;20218;-62
2022/04/09 01:57:25;;;;;;;11.80;8.40;;;;;;;;;;5093171;28;20198;-60
2022/04/09 01:59:53;;;;;;;12.60;8.97;;;;;;;;;;5093338;28;20293;-61
2022/04/09 02:02:21;;;;;;;12.47;8.93;;;;;;;;;;5093533;28;20213;-61
2022/04/09 02:04:48;;;;;;;12.23;8.67;;;;;;;;;;5093526;28;20237;-61
2022/04/09 02:07:17;;;;;;;16.53;8.97;;;;;;;;;;5093341;28;20213;-60
2022/04/09 02:09:44;;;;;;;15.17;9.77;;;;;;;;;;5094372;28;20214;-61
2022/04/09 02:12:11;;;;;;;15.77;10.17;;;;;;;;;;5097101;28;20652;-60
2022/04/09 02:14:39;;;;;;;12.70;10.10;;;;;;;;;;5098206;28;20241;-61
2022/04/09 02:17:06;;;;;;;14.90;10.20;;;;;;;;;;5097343;28;20226;-61
2022/04/09 02:19:33;;;;;;;15.90;11.80;;;;;;;;;;5097187;28;20298;-61
2022/04/09 02:22:01;;;;;;;14.53;11.03;;;;;;;;;;5096787;28;20709;-62
2022/04/09 02:24:28;;;;;;;23.93;12.67;;;;;;;;;;5097909;28;20206;-61
2022/04/09 02:26:55;;;;;;;13.87;10.47;;;;;;;;;;5096841;28;20203;-61
2022/04/09 02:29:22;;;;;;;14.63;10.53;;;;;;;;;;5097085;28;20586;-61
2022/04/09 02:31:50;;;;;;;14.10;9.63;;;;;;;;;;5096709;28;20230;-62
2022/04/09 02:34:18;;;;;;;15.40;9.50;;;;;;;;;;5096653;28;20229;-61
2022/04/09 02:36:46;;;;;;;13.30;9.47;;;;;;;;;;5097070;28;20213;-63
2022/04/09 02:39:13;;;;;;;15.97;10.30;;;;;;;;;;5096941;28;20199;-60
2022/04/09 02:41:40;;;;;;;15.77;9.77;;;;;;;;;;5096736;28;20195;-60
2022/04/09 02:44:07;;;;;;;13.97;10.57;;;;;;;;;;5097554;28;20348;-61
2022/04/09 02:46:35;;;;;;;16.10;9.63;;;;;;;;;;5096609;28;20195;-61
2022/04/09 02:49:03;;;;;;;14.47;11.13;;;;;;;;;;5096492;28;20217;-62
2022/04/09 02:51:30;;;;;;;22.60;12.57;;;;;;;;;;5096667;28;20644;-63
2022/04/09 02:53:59;;;;;;;19.63;12.50;;;;;;;;;;5096650;28;20241;-61
2022/04/09 02:56:27;;;;;;;30.30;16.07;;;;;;;;;;5096465;28;20223;-60
2022/04/09 02:58:54;;;;;;;27.90;15.33;;;;;;;;;;5096401;28;20291;-60
2022/04/09 03:01:24;;;;;;;20.20;12.70;;;;;;;;;;5096282;28;20252;-61
2022/04/09 03:03:52;;;;;;;18.77;11.10;;;;;;;;;;5096174;28;20659;-61
2022/04/09 03:06:19;;;;;;;14.93;11.03;;;;;;;;;;5097013;28;20637;-61
2022/04/09 03:08:46;;;;;;;15.03;8.47;;;;;;;;;;5096947;28;20203;-61
2022/04/09 03:11:13;;;;;;;13.27;8.30;;;;;;;;;;5095978;28;20657;-61
2022/04/09 03:13:41;;;;;;;11.97;8.47;;;;;;;;;;5096188;28;20202;-61
2022/04/09 03:16:09;;;;;;;24.50;13.70;;;;;;;;;;5096764;28;20214;-61
2022/04/09 03:18:36;;;;;;;23.30;13.20;;;;;;;;;;5095867;28;20203;-61
2022/04/09 03:21:04;;;;;;;20.57;12.00;;;;;;;;;;5095321;28;20282;-61
2022/04/09 03:23:34;;;;;;;21.77;12.23;;;;;;;;;;5095954;28;20272;-60
2022/04/09 03:26:02;;;;;;;17.43;10.27;;;;;;;;;;5095667;28;20198;-62
2022/04/09 03:28:39;;;;;;;13.10;7.67;;;;;;;;;;5095543;28;20301;-61
2022/04/09 03:31:09;;;;;;;15.17;7.77;;;;;;;;;;5095434;28;20226;-62
2022/04/09 03:33:37;;;;;;;18.37;10.93;;;;;;;;;;5095366;28;20293;-60
2022/04/09 03:36:11;;;;;;;20.40;12.03;;;;;;;;;;5095290;28;20286;-61
2022/04/09 03:38:41;;;;;;;18.33;11.13;;;;;;;;;;5095053;28;20633;-62
2022/04/09 03:41:08;;;;;;;14.40;9.27;;;;;;;;;;5094966;28;20203;-60
2022/04/09 03:43:52;;;;;;;11.70;7.17;;;;;;;;;;5095118;28;20286;-61
2022/04/09 03:46:26;;;;;;;10.23;7.37;;;;;;;;;;5095320;28;20713;-63
2022/04/09 03:48:55;;;;;;;13.53;6.40;;;;;;;;;;5095137;28;20222;-62
2022/04/09 03:51:22;;;;;;;11.53;7.10;;;;;;;;;;5094957;28;20282;-61
2022/04/09 03:53:50;;;;;;;8.87;6.83;;;;;;;;;;5095235;28;20271;-60
2022/04/09 03:56:18;;;;;;;10.40;7.20;;;;;;;;;;5095285;28;20270;-61
2022/04/09 03:58:48;;;;;;;11.90;7.27;;;;;;;;;;5095801;28;20191;-60
2022/04/09 04:01:17;;;;;;;14.43;7.90;;;;;;;;;;5095063;28;20500;-61
2022/04/09 04:03:48;;;;;;;11.53;6.80;;;;;;;;;;5095076;28;20203;-62
2022/04/09 04:06:15;;;;;;;11.03;6.33;;;;;;;;;;5095635;28;20202;-61
2022/04/09 04:08:48;;;;;;;10.10;7.27;;;;;;;;;;5095061;28;20199;-61
2022/04/09 04:11:18;;;;;;;11.67;7.13;;;;;;;;;;5094889;28;20285;-61
2022/04/09 04:13:46;;;;;;;10.87;7.03;;;;;;;;;;5095587;28;20548;-62
2022/04/09 04:16:13;;;;;;;14.43;8.87;;;;;;;;;;5094833;28;20246;-61
2022/04/09 04:18:43;;;;;;;22.50;12.50;;;;;;;;;;5094704;28;20215;-60
2022/04/09 04:21:12;;;;;;;21.90;12.40;;;;;;;;;;5094725;28;20199;-61
2022/04/09 04:23:43;;;;;;;22.60;11.47;;;;;;;;;;5107219;28;20197;-61
2022/04/09 04:26:16;;;;;;;13.10;9.27;;;;;;;;;;5104200;28;20347;-60
2022/04/09 04:28:51;;;;;;;20.57;10.63;;;;;;;;;;5094671;28;20213;-61
2022/04/09 04:31:21;;;;;;;19.83;11.63;;;;;;;;;;5101630;28;20308;-61
2022/04/09 04:33:48;;;;;;;18.63;10.23;;;;;;;;;;5114261;28;20629;-60
2022/04/09 04:36:15;;;;;;;12.87;8.67;;;;;;;;;;5115822;28;20241;-61
2022/04/09 04:38:44;;;;;;;13.33;8.73;;;;;;;;;;5114698;28;20663;-61
2022/04/09 04:41:12;;;;;;;13.13;9.40;;;;;;;;;;5114839;28;20213;-61
2022/04/09 04:43:40;;;;;;;18.03;8.87;;;;;;;;;;5107768;28;20288;-61
2022/04/09 04:46:07;;;;;;;16.83;9.70;;;;;;;;;;5113650;28;20305;-61
2022/04/09 04:48:36;;;;;;;11.90;9.37;;;;;;;;;;5113864;28;20221;-61
2022/04/09 04:51:05;;;;;;;12.17;9.27;;;;;;;;;;5113177;28;20676;-61
2022/04/09 04:53:34;;;;;;;16.27;10.07;;;;;;;;;;5113867;28;20347;-61
2022/04/09 04:56:02;;;;;;;14.90;9.03;;;;;;;;;;5097044;28;20226;-61
2022/04/09 04:58:51;;;;;;;13.77;8.77;;;;;;;;;;5092386;28;20250;-60
2022/04/09 05:01:19;;;;;;;12.73;9.07;;;;;;;;;;5093553;28;20367;-63
2022/04/09 05:03:52;;;;;;;13.40;9.13;;;;;;;;;;5093412;28;20593;-60
2022/04/09 05:06:39;;;;;;;14.63;10.30;;;;;;;;;;5093862;28;20326;-61
2022/04/09 05:09:06;;;;;;;15.80;10.60;;;;;;;;;;5103913;28;20218;-61
2022/04/09 05:11:45;;;;;;;11.10;8.57;;;;;;;;;;5112601;28;20375;-61
2022/04/09 05:14:16;;;;;;;13.53;10.20;;;;;;;;;;5111766;27;20214;-61
2022/04/09 05:16:51;;;;;;;13.93;9.80;;;;;;;;;;5112307;28;20664;-61
2022/04/09 05:19:18;;;;;;;13.53;10.43;;;;;;;;;;5108399;27;20222;-62
2022/04/09 05:21:53;;;;;;;16.97;11.23;;;;;;;;;;5096757;28;20371;-62
2022/04/09 05:24:23;;;;;;;14.77;8.67;;;;;;;;;;5097897;28;20226;-62
2022/04/09 05:26:50;;;;;;;12.13;8.40;;;;;;;;;;5106164;28;20729;-62
2022/04/09 05:29:21;;;;;;;14.63;9.10;;;;;;;;;;5103544;28;20226;-63
2022/04/09 05:31:49;;;;;;;10.40;7.63;;;;;;;;;;5097760;28;20700;-61
2022/04/09 05:34:18;;;;;;;13.07;8.63;;;;;;;;;;5104762;28;20226;-61
2022/04/09 05:36:49;;;;;;;12.13;7.63;;;;;;;;;;5106611;28;20297;-60
2022/04/09 05:39:17;;;;;;;8.90;6.73;;;;;;;;;;5093941;28;20218;-62
2022/04/09 05:41:46;;;;;;;13.13;8.37;;;;;;;;;;5092226;28;20287;-60
2022/04/09 05:44:14;;;;;;;11.93;8.23;;;;;;;;;;5093896;28;20553;-61
2022/04/09 05:46:42;;;;;;;15.33;7.93;;;;;;;;;;5113329;28;20683;-60
2022/04/09 05:49:10;;;;;;;13.90;8.30;;;;;;;;;;5115433;28;20213;-60
2022/04/09 05:51:40;;;;;;;11.57;8.23;;;;;;;;;;5112481;28;20213;-62
2022/04/09 05:54:08;;;;;;;12.83;7.23;;;;;;;;;;5114861;28;20582;-62
2022/04/09 05:56:39;;;;;;;12.07;7.40;;;;;;;;;;5110164;28;20259;-61
2022/04/09 05:59:06;;;;;;;10.20;7.37;;;;;;;;;;5100066;28;20228;-62
2022/04/09 06:01:47;;;;;;;9.53;6.57;;;;;;;;;;5117004;28;20544;-62
2022/04/09 06:04:19;;;;;;;9.37;6.57;;;;;;;;;;5117355;28;20229;-61
2022/04/09 06:06:48;;;;;;;9.00;5.93;;;;;;;;;;5116771;28;20565;-61
2022/04/09 06:09:18;;;;;;;8.53;6.67;;;;;;;;;;5117554;28;20554;-60
2022/04/09 06:11:54;;;;;;;11.70;6.97;;;;;;;;;;5116951;28;20225;-60
2022/04/09 06:14:27;;;;;;;8.60;5.93;;;;;;;;;;5116678;28;20236;-60
2022/04/09 06:16:58;;;;;;;10.27;6.57;;;;;;;;;;5116752;28;20248;-65
2022/04/09 06:19:27;;;;;;;13.73;6.93;;;;;;;;;;5107318;28;20226;-62
2022/04/09 06:21:56;;;;;;;7.40;6.03;;;;;;;;;;5096202;28;20226;-64
2022/04/09 06:24:24;;;;;;;8.73;6.30;;;;;;;;;;5096737;28;20279;-64
2022/04/09 06:26:51;;;;;;;11.17;6.37;;;;;;;;;;5096173;28;20322;-65
2022/04/09 06:29:18;;;;;;;12.10;6.07;;;;;;;;;;5105862;28;20305;-64
2022/04/09 06:31:51;;;;;;;9.13;6.13;;;;;;;;;;5116244;28;20564;-65
2022/04/09 06:34:19;;;;;;;9.33;6.97;;;;;;;;;;5117314;28;20301;-64
2022/04/09 06:36:48;;;;;;;10.67;6.73;;;;;;;;;;5116227;28;20233;-63
2022/04/09 06:39:16;;;;;;;5.67;4.67;;;;;;;;;;5116677;28;20556;-62
2022/04/09 06:41:44;;;;;;;7.67;5.50;;;;;;;;;;5112982;28;20596;-64
2022/04/09 06:44:18;;;;;;;6.33;4.60;;;;;;;;;;5109443;28;20748;-65
2022/04/09 06:46:53;;;;;;;6.50;4.80;;;;;;;;;;5112082;28;20597;-65
2022/04/09 06:49:28;;;;;;;6.77;5.17;;;;;;;;;;5113255;28;20244;-66
2022/04/09 06:52:15;;;;;;;8.03;4.67;;;;;;;;;;5104479;28;20229;-67
2022/04/09 06:54:59;;;;;;;5.50;4.00;;;;;;;;;;5114744;28;20230;-66
2022/04/09 06:57:29;;;;;;;6.97;4.93;;;;;;;;;;5111336;28;20324;-65
2022/04/09 06:59:59;;;;;;;10.17;5.87;;;;;;;;;;5110034;28;20199;-65
2022/04/09 07:02:30;;;;;;;4.30;3.43;;;;;;;;;;5104453;28;20201;-66
2022/04/09 07:04:58;;;;;;;4.57;3.60;;;;;;;;;;5096019;28;20213;-67
2022/04/09 07:07:27;;;;;;;6.90;5.13;;;;;;;;;;5099263;28;20301;-64
2022/04/09 07:10:15;;;;;;;6.43;4.70;;;;;;;;;;5098227;28;20195;-66
2022/04/09 07:12:43;;;;;;;8.70;3.83;;;;;;;;;;5109548;28;20552;-65
2022/04/09 07:15:11;;;;;;;7.77;5.03;;;;;;;;;;5115904;28;20316;-65
2022/04/09 07:17:38;;;;;;;10.83;5.63;;;;;;;;;;5116068;27;20490;-64
2022/04/09 07:20:07;;;;;;;10.00;6.00;;;;;;;;;;5112790;28;20226;-65
2022/04/09 07:22:36;;;;;;;7.93;5.00;;;;;;;;;;5114959;28;20285;-65
2022/04/09 07:25:04;;;;;;;10.57;5.80;;;;;;;;;;5115417;28;20190;-65
2022/04/09 07:27:42;;;;;;;11.53;5.40;;;;;;;;;;5115728;28;22067;-65
2022/04/09 07:30:12;;;;;;;6.00;4.50;;;;;;;;;;5113974;28;20222;-65
2022/04/09 07:32:41;;;;;;;6.77;4.13;;;;;;;;;;5115977;27;20209;-65
2022/04/09 07:35:08;;;;;;;9.03;5.07;;;;;;;;;;5115448;28;20270;-64
2022/04/09 07:37:40;;;;;;;6.73;4.80;;;;;;;;;;5115590;28;20689;-65
2022/04/09 07:40:09;;;;;;;7.20;5.70;;;;;;;;;;5114817;28;20617;-63
2022/04/09 07:42:38;;;;;;;6.50;5.73;;;;;;;;;;5115432;28;20818;-64
2022/04/09 07:45:06;;;;;;;8.93;5.43;;;;;;;;;;5115385;28;20194;-66
2022/04/09 07:47:33;;;;;;;10.93;6.47;;;;;;;;;;5115017;28;20281;-66
2022/04/09 07:50:00;;;;;;;9.03;6.13;;;;;;;;;;5112949;28;20194;-66
2022/04/09 07:52:28;;;;;;;8.10;6.50;;;;;;;;;;5115205;28;20202;-64
2022/04/09 07:54:57;;;;;;;10.57;8.37;;;;;;;;;;5114026;28;20539;-65
2022/04/09 07:57:25;;;;;;;11.40;8.50;;;;;;;;;;5115646;28;20285;-65
2022/04/09 07:59:57;;;;;;;14.70;8.97;;;;;;;;;;5101955;28;20244;-64
2022/04/09 08:02:25;;;;;;;10.70;7.93;;;;;;;;;;5104164;28;20244;-64
2022/04/09 08:04:52;;;;;;;13.33;9.63;;;;;;;;;;5111089;28;20241;-63
2022/04/09 08:07:19;;;;;;;10.77;8.23;;;;;;;;;;5102199;28;20230;-64
2022/04/09 08:09:47;;;;;;;13.80;10.37;;;;;;;;;;5108905;28;20339;-63
2022/04/09 08:12:15;;;;;;;13.17;9.37;;;;;;;;;;5111000;28;20225;-64
2022/04/09 08:14:42;;;;;;;14.60;10.07;;;;;;;;;;5112511;28;20235;-63
2022/04/09 08:17:10;;;;;;;12.37;7.73;;;;;;;;;;5094702;28;20728;-64
2022/04/09 08:19:37;;;;;;;11.57;8.00;;;;;;;;;;5095280;28;20249;-65
2022/04/09 08:22:05;;;;;;;14.63;8.97;;;;;;;;;;5094681;28;20625;-64
2022/04/09 08:24:32;;;;;;;14.87;8.50;;;;;;;;;;5108779;28;20313;-65
2022/04/09 08:26:59;;;;;;;12.63;8.40;;;;;;;;;;5113447;28;20234;-63
2022/04/09 08:29:26;;;;;;;13.00;8.00;;;;;;;;;;5109936;28;20214;-64
2022/04/09 08:31:53;;;;;;;13.37;9.43;;;;;;;;;;5097902;28;20267;-64
2022/04/09 08:34:21;;;;;;;15.30;8.63;;;;;;;;;;5094667;28;20284;-61
2022/04/09 08:36:49;;;;;;;12.50;9.07;;;;;;;;;;5094184;28;20269;-63
2022/04/09 08:39:16;;;;;;;10.83;7.77;;;;;;;;;;5094971;28;20227;-63
2022/04/09 08:41:44;;;;;;;8.20;7.30;;;;;;;;;;5094443;28;20315;-65
2022/04/09 08:44:12;;;;;;;7.47;5.80;;;;;;;;;;5094328;28;20258;-64
2022/04/09 08:46:40;;;;;;;6.07;3.80;;;;;;;;;;5112359;27;20254;-63
2022/04/09 08:49:08;;;;;;;8.13;3.33;;;;;;;;;;5114349;28;20234;-64
2022/04/09 08:51:35;;;;;;;7.90;3.97;;;;;;;;;;5114393;27;20225;-63
2022/04/09 08:54:04;;;;;;;8.00;3.67;;;;;;;;;;5110088;28;20214;-64
2022/04/09 08:56:37;;;;;;;4.53;2.13;;;;;;;;;;5110761;28;20294;-64
2022/04/09 08:59:05;;;;;;;5.63;3.00;;;;;;;;;;5112778;28;20222;-64
2022/04/09 09:01:32;;;;;;;4.37;2.57;;;;;;;;;;5103957;28;20222;-64
2022/04/09 09:04:00;;;;;;;4.30;2.13;;;;;;;;;;5112095;28;20214;-63
2022/04/09 09:06:30;;;;;;;5.13;3.47;;;;;;;;;;5113573;27;20309;-64
2022/04/09 09:08:58;;;;;;;4.13;3.07;;;;;;;;;;5113093;28;20622;-64
2022/04/09 09:11:29;;;;;;;6.50;2.90;;;;;;;;;;5113294;28;20262;-64
2022/04/09 09:13:58;;;;;;;5.43;2.67;;;;;;;;;;5113027;28;20260;-65
2022/04/09 09:16:25;;;;;;;6.07;2.80;;;;;;;;;;5111910;27;20533;-64
2022/04/09 09:19:13;;;;;;;4.23;3.00;;;;;;;;;;5113080;27;20209;-65
2022/04/09 09:21:51;;;;;;;6.27;4.57;;;;;;;;;;5109550;27;20550;-64
2022/04/09 09:24:18;;;;;;;6.27;3.50;;;;;;;;;;5113049;28;20218;-64
2022/04/09 09:26:45;;;;;;;6.87;4.00;;;;;;;;;;5112533;27;20317;-63
2022/04/09 09:29:26;;;;;;;9.00;4.20;;;;;;;;;;5112467;28;20225;-63
2022/04/09 09:31:58;;;;;;;6.50;4.77;;;;;;;;;;5110522;28;20314;-64
2022/04/09 09:34:25;;;;;;;6.70;4.57;;;;;;;;;;5110886;28;20249;-62
2022/04/09 09:36:53;;;;;;;7.83;5.70;;;;;;;;;;5112694;28;20325;-65
2022/04/09 09:39:21;;;;;;;8.20;6.27;;;;;;;;;;5110580;28;20225;-63
2022/04/09 09:41:55;;;;;;;10.43;5.80;;;;;;;;;;5105219;27;20718;-65
2022/04/09 09:44:25;;;;;;;8.13;4.97;;;;;;;;;;5106719;28;20552;-65
2022/04/09 09:46:54;;;;;;;7.13;4.30;;;;;;;;;;5103928;27;20214;-64
2022/04/09 09:49:25;;;;;;;3.57;3.07;;;;;;;;;;5107439;28;20295;-63
2022/04/09 09:52:03;;;;;;;3.90;3.30;;;;;;;;;;5107930;28;20278;-64
2022/04/09 09:54:30;;;;;;;11.37;4.80;;;;;;;;;;5111999;28;20581;-63
2022/04/09 09:56:58;;;;;;;7.33;5.97;;;;;;;;;;5112651;28;20312;-63
2022/04/09 09:59:27;;;;;;;9.17;6.53;;;;;;;;;;5111464;28;20297;-65
2022/04/09 10:01:54;;;;;;;9.50;5.27;;;;;;;;;;5103546;28;20210;-69
2022/04/09 10:04:23;;;;;;;11.27;7.50;;;;;;;;;;5111555;28;20214;-69
2022/04/09 10:06:50;;;;;;;8.67;7.07;;;;;;;;;;5112478;28;20283;-68
2022/04/09 10:09:19;;;;;;;8.57;6.57;;;;;;;;;;5113406;27;20218;-69
2022/04/09 10:11:50;;;;;;;7.57;6.37;;;;;;;;;;5113366;28;20225;-68
2022/04/09 10:14:23;;;;;;;6.93;5.80;;;;;;;;;;5112169;28;20221;-69
2022/04/09 10:16:53;;;;;;;7.53;6.00;;;;;;;;;;5107901;28;20237;-68
2022/04/09 10:19:22;;;;;;;7.33;6.20;;;;;;;;;;5112517;28;20214;-70
2022/04/09 10:21:51;;;;;;;8.20;5.90;;;;;;;;;;5106754;28;20230;-70
2022/04/09 10:24:25;;;;;;;8.27;5.20;;;;;;;;;;5113506;28;20305;-71
2022/04/09 10:26:56;;;;;;;8.73;4.90;;;;;;;;;;5109854;28;20229;-72
2022/04/09 10:29:23;;;;;;;6.23;5.63;;;;;;;;;;5110065;27;20222;-69
2022/04/09 10:31:54;;;;;;;4.67;4.17;;;;;;;;;;5115051;28;20313;-70
2022/04/09 10:34:21;;;;;;;6.63;4.30;;;;;;;;;;5117837;27;20222;-69
2022/04/09 10:36:48;;;;;;;6.23;4.43;;;;;;;;;;5117335;28;20355;-68
2022/04/09 10:39:39;;;;;;;5.13;3.90;;;;;;;;;;5117450;27;20249;-61
2022/04/09 10:42:07;;;;;;;5.20;3.77;;;;;;;;;;5116862;28;20317;-67
2022/04/09 10:44:43;;;;;;;4.47;3.20;;;;;;;;;;5115948;27;20694;-65
2022/04/09 10:47:13;;;;;;;8.07;3.87;;;;;;;;;;5097343;28;20241;-66
2022/04/09 10:49:41;;;;;;;5.13;3.50;;;;;;;;;;5096699;28;20226;-62
2022/04/09 10:52:17;;;;;;;5.80;3.17;;;;;;;;;;5106631;28;20250;-70
2022/04/09 10:55:10;;;;;;;6.37;3.70;;;;;;;;;;5114636;28;20309;-67
2022/04/09 10:57:44;;;;;;;4.90;3.40;;;;;;;;;;5101196;28;20324;-61
2022/04/09 11:00:21;;;;;;;6.77;3.87;;;;;;;;;;5114040;28;20218;-68
2022/04/09 11:03:16;;;;;;;4.20;2.80;;;;;;;;;;5111773;28;20317;-64
2022/04/09 11:05:43;;;;;;;4.23;3.27;;;;;;;;;;5114578;28;20249;-71
2022/04/09 11:08:19;;;;;;;6.30;4.20;;;;;;;;;;5115201;27;20263;-70
2022/04/09 11:10:46;;;;;;;7.77;5.07;;;;;;;;;;5115855;28;20321;-69
2022/04/09 11:13:14;;;;;;;4.43;3.03;;;;;;;;;;5112242;27;20236;-70
2022/04/09 11:15:45;;;;;;;9.13;5.13;;;;;;;;;;5112461;28;20218;-69
2022/04/09 11:18:12;;;;;;;7.47;4.40;;;;;;;;;;5114617;28;20305;-67
2022/04/09 11:20:39;;;;;;;4.97;3.20;;;;;;;;;;5115309;27;20233;-68
2022/04/09 11:23:19;;;;;;;6.10;3.60;;;;;;;;;;5115367;28;20224;-70
2022/04/09 11:25:47;;;;;;;5.30;3.80;;;;;;;;;;5114307;28;20660;-68
2022/04/09 11:28:19;;;;;;;8.67;5.47;;;;;;;;;;5112525;28;20230;-69
2022/04/09 11:30:58;;;;;;;9.17;5.27;;;;;;;;;;5114750;27;20577;-69
2022/04/09 11:33:26;;;;;;;5.10;4.13;;;;;;;;;;5113373;28;20386;-66
2022/04/09 11:35:53;;;;;;;14.95;11.05;;;;;;;;;;5112087;28;20256;-68
2022/04/09 11:38:29;;;;;;;5.77;3.30;;;;;;;;;;5115176;28;20554;-69
2022/04/09 11:40:57;;;;;;;6.70;3.93;;;;;;;;;;5112617;28;20217;-68
2022/04/09 11:43:24;;;;;;;5.15;3.22;;;;;;;;;;5114864;28;20246;-68
2022/04/09 11:45:52;;;;;;;8.80;4.10;;;;;;;;;;5111525;27;20717;-68
2022/04/09 11:48:21;;;;;;;5.75;3.90;;;;;;;;;;5114964;28;20540;-68
2022/04/09 11:50:49;;;;;;;7.93;5.10;;;;;;;;;;5114475;28;20222;-68
2022/04/09 11:53:21;;;;;;;9.97;5.93;;;;;;;;;;5114920;28;20232;-68
2022/04/09 11:55:49;;;;;;;7.32;4.97;;;;;;;;;;5114400;27;20744;-66
2022/04/09 11:58:19;;;;;;;19.63;9.03;;;;;;;;;;5114274;28;20229;-69
2022/04/09 12:00:47;;;;;;;16.80;14.13;;;;;;;;;;5112946;28;20230;-67
2022/04/09 12:03:15;;;;;;;12.70;8.87;;;;;;;;;;5105801;28;20232;-69
2022/04/09 12:05:47;;;;;;;15.77;9.33;;;;;;;;;;5108223;27;20278;-69
2022/04/09 12:08:17;;;;;;;19.50;9.70;;;;;;;;;;5110871;28;20296;-68
2022/04/09 12:11:01;;;;;;;10.50;7.27;;;;;;;;;;5107234;28;20226;-67
2022/04/09 12:13:37;;;;;;;11.03;7.53;;;;;;;;;;5112284;28;21375;-70
2022/04/09 12:16:10;;;;;;;9.23;7.13;;;;;;;;;;5104968;27;20249;-67
2022/04/09 12:18:38;;;;;;;18.93;10.50;;;;;;;;;;5111317;28;20224;-69
2022/04/09 12:21:27;;;;;;;19.20;10.40;;;;;;;;;;5113204;27;20317;-67
2022/04/09 12:24:07;;;;;;;17.37;8.20;;;;;;;;;;5110865;28;20317;-66
2022/04/09 12:26:36;;;;;;;24.38;10.27;;;;;;;;;;5104635;28;20676;-60
2022/04/09 12:29:13;;;;;;;21.17;10.00;;;;;;;;;;5104454;28;20220;-67
2022/04/09 12:31:41;;;;;;;20.57;10.33;;;;;;;;;;5102363;28;20569;-68
2022/04/09 12:34:09;;;;;;;10.13;7.27;;;;;;;;;;5104255;28;20290;-68
2022/04/09 12:36:38;;;;;;;18.87;8.10;;;;;;;;;;5105212;27;20226;-67
2022/04/09 12:39:25;;;;;;;114.97;81.25;;;;;;;;;;5103490;28;20246;-69
2022/04/09 12:41:52;;;;;;;36.78;24.08;;;;;;;;;;5111986;27;20225;-67
2022/04/09 12:44:26;;;;;;;23.23;9.35;;;;;;;;;;5113245;28;20301;-70
2022/04/09 12:46:54;;;;;;;9.93;6.60;;;;;;;;;;5110749;27;20230;-69
2022/04/09 12:49:26;;;;;;;21.48;9.25;;;;;;;;;;5094718;28;20245;-68
2022/04/09 12:51:53;;;;;;;13.70;7.22;;;;;;;;;;5094025;28;20738;-69
2022/04/09 12:54:21;;;;;;;23.27;10.35;;;;;;;;;;5096657;28;20501;-68
2022/04/09 12:56:51;;;;;;;14.47;7.13;;;;;;;;;;5101124;28;20261;-68
2022/04/09 12:59:18;;;;;;;18.70;9.10;;;;;;;;;;5104347;28;20225;-67
2022/04/09 13:01:46;;;;;;;15.73;10.10;;;;;;;;;;5107474;28;20219;-68
2022/04/09 13:04:13;;;;;;;48.53;17.75;;;;;;;;;;5101454;28;20218;-64
2022/04/09 13:06:40;;;;;;;17.75;9.00;;;;;;;;;;5106718;27;20249;-68
2022/04/09 13:09:11;;;;;;;15.23;8.25;;;;;;;;;;5098656;28;20234;-66
2022/04/09 13:11:38;;;;;;;11.77;7.18;;;;;;;;;;5102644;28;20317;-70
2022/04/09 13:14:05;;;;;;;11.50;6.60;;;;;;;;;;5101499;28;20485;-68
2022/04/09 13:16:33;;;;;;;17.90;9.45;;;;;;;;;;5110818;27;20257;-67
2022/04/09 13:19:00;;;;;;;61.67;33.00;;;;;;;;;;5098528;28;20229;-67
2022/04/09 13:21:27;;;;;;;40.42;36.15;;;;;;;;;;5093972;28;20230;-67
2022/04/09 13:23:54;;;;;;;51.45;20.35;;;;;;;;;;5093765;28;20248;-65
2022/04/09 13:26:22;;;;;;;16.65;8.52;;;;;;;;;;5093168;28;20681;-64
2022/04/09 13:28:49;;;;;;;15.95;7.25;;;;;;;;;;5093849;28;20226;-63
2022/04/09 13:31:17;;;;;;;18.95;8.85;;;;;;;;;;5105737;27;20237;-64
2022/04/09 13:33:44;;;;;;;14.68;7.28;;;;;;;;;;5114067;28;20249;-65
2022/04/09 13:36:11;;;;;;;11.18;6.65;;;;;;;;;;5114082;27;20245;-65
2022/04/09 13:38:39;;;;;;;14.38;7.07;;;;;;;;;;5114077;28;20333;-64
2022/04/09 13:41:06;;;;;;;12.90;6.50;;;;;;;;;;5113150;28;20225;-65
2022/04/09 13:43:33;;;;;;;19.55;10.20;;;;;;;;;;5114408;28;20225;-68
2022/04/09 13:46:00;;;;;;;18.67;8.25;;;;;;;;;;5100328;28;20222;-62
2022/04/09 13:48:27;;;;;;;14.15;7.22;;;;;;;;;;5094179;28;20281;-62
2022/04/09 13:50:54;;;;;;;11.25;7.15;;;;;;;;;;5093887;28;20231;-65
2022/04/09 13:53:22;;;;;;;18.10;7.18;;;;;;;;;;5093641;28;20238;-63
2022/04/09 13:55:49;;;;;;;15.35;7.55;;;;;;;;;;5093036;28;20226;-65
2022/04/09 13:58:17;;;;;;;16.27;7.80;;;;;;;;;;5093661;28;20249;-65
2022/04/09 14:00:46;;;;;;;18.73;7.60;;;;;;;;;;5112641;28;20309;-63
2022/04/09 14:03:14;;;;;;;19.42;10.98;;;;;;;;;;5113767;27;20569;-65
2022/04/09 14:05:41;;;;;;;24.63;12.95;;;;;;;;;;5116662;28;20643;-64
2022/04/09 14:08:08;;;;;;;21.02;8.07;;;;;;;;;;5117905;27;20376;-62
2022/04/09 14:10:35;;;;;;;17.45;7.13;;;;;;;;;;5117193;28;20221;-58
2022/04/09 14:13:02;;;;;;;19.13;8.45;;;;;;;;;;5113509;28;20210;-65
2022/04/09 14:15:30;;;;;;;17.77;7.65;;;;;;;;;;5107202;28;20302;-57
2022/04/09 14:17:57;;;;;;;15.05;6.60;;;;;;;;;;5104188;28;20231;-63
2022/04/09 14:20:24;;;;;;;21.02;8.50;;;;;;;;;;5097517;28;20225;-63
2022/04/09 14:22:51;;;;;;;17.27;9.25;;;;;;;;;;5096112;28;20313;-62
2022/04/09 14:25:18;;;;;;;14.70;7.50;;;;;;;;;;5097188;28;20230;-62
2022/04/09 14:27:45;;;;;;;21.27;9.93;;;;;;;;;;5093726;28;20669;-62
2022/04/09 14:30:12;;;;;;;21.13;8.65;;;;;;;;;;5105655;28;20265;-64
2022/04/09 14:32:40;;;;;;;15.95;7.70;;;;;;;;;;5111923;27;20264;-64
2022/04/09 14:35:07;;;;;;;9.73;5.20;;;;;;;;;;5116070;28;20584;-63
2022/04/09 14:37:35;;;;;;;11.20;5.47;;;;;;;;;;5127275;27;20243;-63
2022/04/09 14:40:07;;;;;;;10.73;4.38;;;;;;;;;;5128080;27;20218;-69
2022/04/09 14:42:35;;;;;;;10.07;4.78;;;;;;;;;;5102437;27;20247;-64
2022/04/09 14:45:04;;;;;;;20.85;9.55;;;;;;;;;;5099964;28;20309;-61
2022/04/09 14:47:31;;;;;;;10.18;4.78;;;;;;;;;;5099929;28;20260;-61